Saga Pearl II — 9HA2950 — position and weather

sailwx.info

Track history (hours):
 
Tides and Currents Weather Stations Pressure Air Temp Water Temp Dewpoint Dewpoint Depression Visibility Wind Speed Wind Dir Waves Ship Positions

Saga Pearl II

Last reported at 2018-Jan-22 22:03 UTC. Time now 2018-Jan-23 22:18 UTC.
Position N 29°09' W 013°17'.

Length 165 m; draft 6.3 m.

Type: Ship. MMSI: 256878000.

Date/timePositionNaut miles runAvg speedWind from/ knotsBaromVisibWave heightAir tempDewpointWater temp
2018-Jan-22 22:03N 29°09' W 013°17'117.6
2018-Jan-22 21:59N 29°08' W 013°18'817.5
2018-Jan-22 21:30N 29°01' W 013°24'815.0
2018-Jan-22 21:00N 28°57' W 013°31'4 7.6
2018-Jan-22 20:29N 28°59' W 013°27'715.3
2018-Jan-22 20:00N 29°02' W 013°20'3 6.3
2018-Jan-22 19:30N 29°05' W 013°20'815.2
2018-Jan-22 18:59N 28°60' W 013°26'5 3.5
2018-Jan-22 17:27N 28°58' W 013°32'0 0.0
2018-Jan-22 15:14N 28°58' W 013°32'0 0.0
2018-Jan-22 12:00N 28°58' W 013°32'0 0.0
2018-Jan-22 08:44N 28°58' W 013°32'0 0.0
2018-Jan-22 08:28N 28°58' W 013°32'1 2.8
2018-Jan-22 07:59N 28°57' W 013°32'714.2
2018-Jan-22 07:30N 28°50' W 013°34'713.6
2018-Jan-22 06:59N 28°43' W 013°37'714.8
2018-Jan-22 06:29N 28°36' W 013°40'2415.3
2018-Jan-22 04:56N 28°14' W 013°48'715.2
2018-Jan-22 04:26N 28°07' W 013°52'715.4
2018-Jan-22 04:00N 28°01' W 013°56'815.3
2018-Jan-22 03:30N 27°55' W 014°00'815.0
2018-Jan-22 03:00N 27°48' W 014°04'714.8
2018-Jan-22 02:30N 27°42' W 014°08'714.2
2018-Jan-22 02:00N 27°36' W 014°12'714.5
2018-Jan-22 01:30N 27°29' W 014°16'714.5
2018-Jan-22 01:00N 27°23' W 014°20'814.8
2018-Jan-22 00:29N 27°16' W 014°25'715.0
2018-Jan-22 00:00N 27°10' W 014°29'815.1
2018-Jan-21 23:30N 27°03' W 014°33'715.2
2018-Jan-21 23:00N 26°57' W 014°38'35214.7
2018-Jan-20 23:00N 21°42' W 017°30'   050 / 261020.310.8 17.015.3
2018-Jan-15 23:00N 27°24' W 015°30'162 6.8 040 / 291025.027.0 18.012.7
2018-Jan-14 23:00N 30°06' W 015°24'   010 / 51026.927.0 17.013.5
Track history (hours):
 
Tides and Currents Weather Stations Pressure Air Temp Water Temp Dewpoint Dewpoint Depression Visibility Wind Speed Wind Dir Waves Ship Positions

Saga Pearl II

Last reported at 2018-Jan-22 22:03 UTC. Time now 2018-Jan-23 22:18 UTC.
Position N 29°09' W 013°17'.

Length 165 m; draft 6.3 m.

Type: Ship. MMSI: 256878000.

Date/timePositionNaut miles runAvg speedWind from/ knotsBaromVisibWave heightAir tempDewpointWater temp
2018-Jan-22 22:03N 29°09' W 013°17'117.6
2018-Jan-22 21:59N 29°08' W 013°18'817.5
2018-Jan-22 21:30N 29°01' W 013°24'815.0
2018-Jan-22 21:00N 28°57' W 013°31'4 7.6
2018-Jan-22 20:29N 28°59' W 013°27'715.3
2018-Jan-22 20:00N 29°02' W 013°20'3 6.3
2018-Jan-22 19:30N 29°05' W 013°20'815.2
2018-Jan-22 18:59N 28°60' W 013°26'5 3.5
2018-Jan-22 17:27N 28°58' W 013°32'0 0.0
2018-Jan-22 15:14N 28°58' W 013°32'0 0.0
2018-Jan-22 12:00N 28°58' W 013°32'0 0.0
2018-Jan-22 08:44N 28°58' W 013°32'0 0.0
2018-Jan-22 08:28N 28°58' W 013°32'1 2.8
2018-Jan-22 07:59N 28°57' W 013°32'714.2
2018-Jan-22 07:30N 28°50' W 013°34'713.6
2018-Jan-22 06:59N 28°43' W 013°37'714.8
2018-Jan-22 06:29N 28°36' W 013°40'2415.3
2018-Jan-22 04:56N 28°14' W 013°48'715.2
2018-Jan-22 04:26N 28°07' W 013°52'715.4
2018-Jan-22 04:00N 28°01' W 013°56'815.3
2018-Jan-22 03:30N 27°55' W 014°00'815.0
2018-Jan-22 03:00N 27°48' W 014°04'714.8
2018-Jan-22 02:30N 27°42' W 014°08'714.2
2018-Jan-22 02:00N 27°36' W 014°12'714.5
2018-Jan-22 01:30N 27°29' W 014°16'714.5
2018-Jan-22 01:00N 27°23' W 014°20'814.8
2018-Jan-22 00:29N 27°16' W 014°25'715.0
2018-Jan-22 00:00N 27°10' W 014°29'815.1
2018-Jan-21 23:30N 27°03' W 014°33'715.2
2018-Jan-21 23:00N 26°57' W 014°38'35214.7
2018-Jan-20 23:00N 21°42' W 017°30'   050 / 261020.310.8 17.015.3
2018-Jan-15 23:00N 27°24' W 015°30'162 6.8 040 / 291025.027.0 18.012.7
2018-Jan-14 23:00N 30°06' W 015°24'   010 / 51026.927.0 17.013.5

Dump ship's entire track history